createdAt,value
2019-01-21T00:03:35.031Z,18.20
2019-01-21T00:06:59.301Z,17.03
2019-01-21T00:13:52.909Z,19.23
2019-01-21T00:17:22.345Z,18.00
2019-01-21T00:20:42.900Z,19.23
2019-01-21T00:24:06.904Z,17.40
2019-01-21T00:27:30.881Z,17.07
2019-01-21T00:30:54.866Z,18.07
2019-01-21T00:34:37.947Z,17.53
2019-01-21T00:38:01.928Z,17.33
2019-01-21T00:41:26.007Z,18.20
2019-01-21T00:44:42.900Z,17.25
2019-01-21T00:51:41.664Z,17.67
2019-01-21T00:55:26.442Z,17.63
2019-01-21T00:58:50.452Z,17.90
2019-01-21T01:02:14.479Z,18.57
2019-01-21T01:05:38.700Z,18.27
2019-01-21T01:19:53.827Z,18.27
2019-01-21T01:23:17.809Z,18.23
2019-01-21T01:26:41.861Z,17.23
2019-01-21T01:30:26.886Z,19.27
2019-01-21T01:33:50.876Z,17.77
2019-01-21T01:37:33.991Z,18.23
2019-01-21T01:40:57.958Z,17.97
2019-01-21T01:44:22.046Z,17.97
2019-01-21T01:48:05.067Z,18.23
2019-01-21T01:51:29.297Z,17.90
2019-01-21T01:54:53.313Z,19.97
2019-01-21T01:58:17.380Z,18.03
2019-01-21T02:01:41.454Z,17.73
2019-01-21T02:04:46.124Z,18.75
2019-01-21T02:08:29.281Z,21.23
2019-01-21T02:11:53.317Z,19.45
2019-01-21T02:23:31.901Z,17.63
2019-01-21T02:27:15.850Z,19.10
2019-01-21T02:31:20.130Z,19.33
2019-01-21T02:35:22.712Z,17.05
2019-01-21T02:39:07.838Z,18.47
2019-01-21T02:43:10.420Z,20.20
2019-01-21T02:46:46.684Z,20.57
2019-01-21T02:50:31.464Z,19.77
2019-01-21T02:54:16.535Z,19.63
2019-01-21T02:58:01.319Z,17.93
2019-01-21T03:02:04.927Z,19.32
2019-01-21T03:05:49.738Z,18.40
2019-01-21T03:13:26.784Z,19.30
2019-01-21T03:17:29.358Z,19.80
2019-01-21T03:21:32.200Z,19.00
2019-01-21T03:25:17.271Z,18.20
2019-01-21T03:29:19.852Z,19.13
2019-01-21T03:33:22.422Z,18.30
2019-01-21T03:37:25.098Z,18.32
2019-01-21T03:41:10.194Z,17.93
2019-01-21T03:44:53.726Z,19.25
2019-01-21T03:48:38.484Z,19.23
2019-01-21T03:52:41.060Z,18.73
2019-01-21T03:56:25.828Z,20.90
2019-01-21T04:00:28.391Z,18.80
2019-01-21T04:08:18.178Z,20.03
2019-01-21T04:12:02.940Z,18.20
2019-01-21T04:15:48.012Z,19.70
2019-01-21T04:19:32.855Z,18.80
2019-01-21T04:23:35.386Z,19.33
2019-01-21T04:27:02.473Z,19.48
2019-01-21T04:30:47.321Z,18.15
2019-01-21T04:34:34.241Z,19.93
2019-01-21T04:38:19.288Z,19.33
2019-01-21T04:42:21.901Z,21.07
2019-01-21T04:45:40.575Z,19.67
2019-01-21T04:49:25.351Z,20.43
2019-01-21T04:53:28.011Z,19.30
2019-01-21T04:57:13.043Z,19.53
2019-01-21T05:00:57.808Z,19.17
2019-01-21T05:05:00.611Z,19.67
2019-01-21T05:09:04.333Z,20.73
2019-01-21T05:12:49.154Z,19.60
2019-01-21T05:16:34.076Z,19.63
2019-01-21T05:20:19.132Z,19.93
2019-01-21T05:24:21.684Z,20.03
2019-01-21T05:28:06.489Z,20.10
2019-01-21T05:32:09.309Z,22.40
2019-01-21T05:39:44.912Z,20.27
2019-01-21T05:43:47.448Z,20.33
2019-01-21T05:47:23.301Z,20.33
2019-01-21T05:51:08.111Z,21.30
2019-01-21T05:55:10.701Z,21.53
2019-01-21T05:59:13.512Z,19.57
2019-01-21T06:03:16.282Z,22.57
2019-01-21T06:07:01.047Z,19.33
2019-01-21T06:15:16.202Z,21.57
2019-01-21T06:19:18.769Z,19.53
2019-01-21T06:23:03.569Z,19.27
2019-01-21T06:27:06.149Z,21.85
2019-01-21T06:30:51.187Z,19.73
2019-01-21T06:34:53.734Z,19.30
2019-01-21T06:38:56.278Z,19.30
2019-01-21T06:42:58.844Z,21.50
2019-01-21T06:46:17.449Z,21.17
2019-01-21T06:50:02.300Z,20.60
2019-01-21T06:53:47.045Z,21.83
2019-01-21T06:57:49.596Z,19.97
2019-01-21T07:01:53.483Z,21.85
2019-01-21T07:05:56.079Z,20.10
2019-01-21T07:09:41.130Z,20.63
2019-01-21T07:13:25.973Z,21.20
2019-01-21T07:21:24.540Z,20.63
2019-01-21T07:25:27.122Z,21.77
2019-01-21T07:29:29.985Z,20.03
2019-01-21T07:33:32.536Z,19.67
2019-01-21T07:37:17.628Z,19.53
2019-01-21T07:41:02.413Z,22.75
2019-01-21T07:44:47.177Z,19.73
2019-01-21T07:48:49.746Z,21.30
2019-01-21T07:52:52.289Z,20.27
2019-01-21T07:56:54.825Z,19.97
2019-01-21T08:00:57.619Z,21.83
2019-01-21T08:05:00.409Z,19.98
2019-01-21T08:08:45.169Z,21.37
2019-01-21T08:12:47.774Z,21.73
2019-01-21T08:16:50.384Z,20.53
2019-01-21T08:20:35.196Z,20.60
2019-01-21T08:24:20.339Z,21.17
2019-01-21T08:28:05.412Z,21.27
2019-01-21T08:31:50.162Z,21.60
2019-01-21T08:35:35.253Z,21.03
2019-01-21T08:39:37.815Z,19.60
2019-01-21T08:43:22.567Z,22.10
2019-01-21T08:46:58.979Z,21.50
2019-01-21T08:51:01.528Z,20.30
2019-01-21T08:54:46.366Z,19.23
2019-01-21T08:58:48.903Z,21.90
2019-01-21T09:02:33.709Z,20.13
2019-01-21T09:06:36.313Z,19.73
2019-01-21T09:10:21.400Z,20.67
2019-01-21T09:14:24.228Z,20.93
2019-01-21T09:18:27.043Z,23.60
2019-01-21T09:22:11.845Z,21.00
2019-01-21T09:26:14.419Z,21.77
2019-01-21T09:30:16.957Z,21.20
2019-01-21T09:34:19.535Z,20.67
2019-01-21T09:38:04.674Z,21.80
2019-01-21T09:42:07.221Z,20.87
2019-01-21T09:45:43.825Z,21.00
2019-01-21T09:49:06.925Z,23.00
2019-01-21T10:00:32.272Z,23.33
2019-01-21T10:08:06.932Z,21.87
2019-01-21T10:11:51.758Z,21.82
2019-01-21T10:15:36.575Z,20.82
2019-01-21T10:19:39.408Z,20.87
2019-01-21T10:23:41.947Z,21.00
2019-01-21T10:27:26.730Z,20.07
2019-01-21T10:31:12.033Z,21.00
2019-01-21T10:34:56.862Z,21.57
2019-01-21T10:38:59.674Z,21.33
2019-01-21T10:42:44.796Z,21.77
2019-01-21T10:46:21.177Z,23.03
2019-01-21T10:50:05.939Z,22.47
2019-01-21T10:53:50.687Z,22.23
2019-01-21T10:57:53.262Z,22.73
2019-01-21T11:01:55.793Z,21.27
2019-01-21T11:05:40.574Z,21.43
2019-01-21T11:09:26.822Z,21.10
2019-01-21T11:13:29.601Z,21.83
2019-01-21T11:17:14.608Z,21.73
2019-01-21T11:20:59.423Z,21.03
2019-01-21T11:25:02.211Z,20.57
2019-01-21T11:28:47.005Z,21.00
2019-01-21T11:32:49.592Z,23.23
2019-01-21T11:36:52.135Z,20.53
2019-01-21T11:40:36.905Z,20.73
2019-01-21T11:44:39.448Z,22.60
2019-01-21T11:48:24.259Z,22.73
2019-01-21T11:52:09.012Z,22.70
2019-01-21T11:56:11.587Z,22.00
2019-01-21T12:00:14.176Z,20.40
2019-01-21T12:03:59.274Z,22.37
2019-01-21T12:07:44.061Z,21.37
2019-01-21T12:11:28.870Z,22.90
2019-01-21T12:15:14.012Z,21.50
2019-01-21T12:18:58.814Z,22.27
2019-01-21T12:23:01.343Z,20.50
2019-01-21T12:26:46.113Z,19.80
2019-01-21T12:30:48.931Z,18.27
2019-01-21T12:34:33.749Z,21.43
2019-01-21T12:37:42.973Z,18.40
2019-01-21T12:41:27.762Z,19.98
2019-01-21T12:45:04.321Z,19.80
2019-01-21T12:48:49.510Z,19.47
2019-01-21T12:52:34.626Z,20.70
2019-01-21T12:56:37.166Z,21.03
2019-01-21T13:00:39.715Z,19.67
2019-01-21T13:04:44.068Z,18.73
2019-01-21T13:08:29.078Z,18.93
2019-01-21T13:12:31.861Z,18.97
2019-01-21T13:16:16.916Z,19.80
2019-01-21T13:20:01.759Z,18.87
2019-01-21T13:23:58.458Z,20.33
2019-01-21T13:27:33.069Z,18.83
2019-01-21T13:31:35.659Z,20.92
2019-01-21T13:35:20.462Z,19.23
2019-01-21T13:39:23.256Z,20.77
2019-01-21T13:43:08.051Z,18.93
2019-01-21T13:46:44.372Z,18.32
2019-01-21T13:50:29.132Z,20.33
2019-01-21T13:54:31.678Z,18.40
2019-01-21T13:58:16.526Z,19.50
2019-01-21T14:01:37.187Z,19.93
2019-01-21T14:05:39.772Z,18.30
2019-01-21T14:09:25.107Z,18.95
2019-01-21T14:12:40.222Z,18.60
2019-01-21T14:16:25.089Z,20.70
2019-01-21T14:20:27.706Z,21.05
2019-01-21T14:24:30.242Z,20.37
2019-01-21T14:28:32.814Z,19.33
2019-01-21T14:32:18.026Z,19.47
2019-01-21T14:36:03.084Z,19.00
2019-01-21T14:39:48.281Z,19.67
2019-01-21T14:43:50.854Z,19.30
2019-01-21T14:47:09.371Z,19.27
2019-01-21T14:51:13.416Z,19.43
2019-01-21T14:54:58.207Z,19.23
2019-01-21T14:59:00.772Z,19.23
2019-01-21T15:02:45.562Z,18.80
2019-01-21T15:06:48.133Z,20.17
2019-01-21T15:14:42.985Z,18.40
2019-01-21T15:18:45.582Z,17.97
2019-01-21T15:22:48.359Z,19.23
2019-01-21T15:26:51.666Z,19.70
2019-01-21T15:30:36.875Z,18.23
2019-01-21T15:34:39.471Z,18.70
2019-01-21T15:38:24.362Z,20.73
2019-01-21T15:42:26.979Z,19.42
2019-01-21T15:45:50.147Z,19.90
2019-01-21T15:49:32.177Z,19.90
2019-01-21T15:53:24.200Z,17.73
2019-01-21T15:57:09.231Z,18.00
2019-01-21T16:00:54.523Z,18.23
2019-01-21T16:04:39.947Z,17.37
2019-01-21T16:08:25.049Z,18.67
2019-01-21T16:12:27.608Z,18.17
2019-01-21T16:16:12.378Z,15.97
2019-01-21T16:24:18.569Z,16.30
2019-01-21T16:28:03.452Z,16.63
2019-01-21T16:31:48.244Z,16.97
2019-01-21T16:35:33.006Z,18.20
2019-01-21T16:39:17.803Z,16.13
2019-01-21T16:46:04.935Z,17.13
2019-01-21T16:49:28.915Z,16.17
2019-01-21T16:52:52.959Z,17.30
2019-01-21T16:56:17.176Z,16.13
2019-01-21T16:59:41.145Z,16.47
2019-01-21T17:06:36.049Z,15.83
2019-01-21T17:10:00.040Z,16.83
2019-01-21T17:13:24.082Z,17.90
2019-01-21T17:16:48.053Z,16.80
2019-01-21T17:20:31.690Z,16.30
2019-01-21T17:23:55.726Z,16.90
2019-01-21T17:31:02.634Z,15.90
2019-01-21T17:34:26.614Z,17.53
2019-01-21T17:38:09.649Z,17.30
2019-01-21T17:41:34.064Z,15.80
2019-01-21T17:44:51.380Z,18.27
2019-01-21T17:48:55.774Z,21.17
2019-01-21T17:52:19.998Z,18.07
2019-01-21T17:55:43.982Z,16.10
2019-01-21T17:59:27.248Z,16.60
2019-01-21T18:02:51.257Z,17.37
2019-01-21T18:06:15.236Z,16.13
2019-01-21T18:09:39.242Z,16.30
2019-01-21T18:13:03.544Z,17.73
2019-01-21T18:16:46.828Z,18.45
2019-01-21T18:20:31.620Z,16.70
2019-01-21T18:23:55.838Z,18.10
2019-01-21T18:30:49.707Z,18.47
2019-01-21T18:38:17.220Z,17.60
2019-01-21T18:41:41.524Z,16.63
2019-01-21T18:44:59.283Z,19.53
2019-01-21T18:48:42.377Z,17.37
2019-01-21T18:56:15.628Z,16.83
2019-01-21T18:59:39.614Z,18.53
2019-01-21T19:03:03.633Z,17.53
2019-01-21T19:06:36.123Z,16.37
2019-01-21T19:10:00.334Z,17.27
2019-01-21T19:13:24.349Z,16.33
2019-01-21T19:16:48.387Z,17.83
2019-01-21T19:20:33.224Z,17.47
2019-01-21T19:23:57.192Z,16.83
2019-01-21T19:27:21.393Z,18.03
2019-01-21T19:34:51.606Z,18.77
2019-01-21T19:38:15.912Z,18.57
2019-01-21T19:41:39.840Z,18.13
2019-01-21T19:44:57.204Z,19.10
2019-01-21T19:48:21.505Z,18.10
2019-01-21T19:51:45.512Z,18.10
2019-01-21T19:55:30.517Z,17.93
2019-01-21T19:58:54.606Z,17.10
2019-01-21T20:02:18.634Z,14.90
2019-01-21T20:05:42.703Z,16.55
2019-01-21T20:09:27.904Z,16.43
2019-01-21T20:16:42.173Z,15.13
2019-01-21T20:20:26.939Z,16.30
2019-01-21T20:23:50.945Z,14.73
2019-01-21T20:27:15.232Z,16.03
2019-01-21T20:30:39.236Z,16.20
2019-01-21T20:34:03.218Z,16.00
2019-01-21T20:37:27.197Z,15.67
2019-01-21T20:40:51.477Z,17.03
2019-01-21T20:44:34.557Z,18.63
2019-01-21T20:47:51.461Z,18.30
2019-01-21T20:51:15.473Z,16.57
2019-01-21T20:54:58.526Z,16.07
2019-01-21T20:58:22.552Z,16.30
2019-01-21T21:01:46.627Z,15.80
2019-01-21T21:05:10.984Z,16.77
2019-01-21T21:08:35.268Z,17.63
2019-01-21T21:11:59.255Z,18.37
2019-01-21T21:15:42.579Z,17.00
2019-01-21T21:19:06.554Z,19.10
2019-01-21T21:22:30.819Z,16.53
2019-01-21T21:25:54.883Z,16.20
2019-01-21T21:29:19.080Z,18.17
2019-01-21T21:32:43.079Z,18.10
2019-01-21T21:36:07.320Z,18.20
2019-01-21T21:39:43.477Z,19.93
2019-01-21T21:42:57.330Z,19.13
2019-01-21T21:46:14.268Z,19.43
2019-01-21T22:00:41.483Z,16.53
2019-01-21T22:04:05.643Z,16.43
2019-01-21T22:07:29.682Z,17.53
2019-01-21T22:14:36.851Z,16.48
2019-01-21T22:18:00.837Z,16.77
2019-01-21T22:21:25.147Z,17.23
2019-01-21T22:25:08.536Z,18.23
2019-01-21T22:28:34.515Z,19.27
2019-01-21T22:31:58.506Z,19.20
2019-01-21T22:35:22.559Z,15.87
2019-01-21T22:38:46.883Z,16.70
2019-01-21T22:42:10.866Z,17.80
2019-01-21T22:45:28.188Z,19.07
2019-01-21T22:48:52.386Z,16.83
2019-01-21T22:52:18.404Z,18.43
2019-01-21T22:59:27.065Z,16.37
2019-01-21T23:02:51.066Z,18.50
2019-01-21T23:10:18.855Z,16.97
2019-01-21T23:13:42.830Z,16.83
2019-01-21T23:17:07.096Z,16.67
2019-01-21T23:20:31.387Z,17.27
2019-01-21T23:23:55.641Z,16.60
2019-01-21T23:31:28.513Z,17.20
2019-01-21T23:34:52.821Z,17.77
2019-01-21T23:38:16.960Z,17.20
2019-01-21T23:45:17.236Z,17.40
2019-01-21T23:48:41.513Z,18.00
2019-01-21T23:56:07.512Z,21.43
2019-01-21T23:59:31.496Z,18.60
